createdAt,value
2023-01-27T00:02:21.487Z,4.40
2023-01-27T00:04:52.160Z,4.70
2023-01-27T00:07:22.919Z,4.60
2023-01-27T00:09:53.951Z,4.40
2023-01-27T00:12:44.082Z,4.10
2023-01-27T00:15:16.485Z,4.40
2023-01-27T00:17:47.071Z,4.30
2023-01-27T00:20:40.043Z,4.10
2023-01-27T00:23:32.563Z,4.00
2023-01-27T00:26:06.671Z,3.90
2023-01-27T00:28:38.647Z,3.80
2023-01-27T00:31:28.257Z,3.70
2023-01-27T00:34:02.109Z,3.90
2023-01-27T00:36:33.344Z,4.20
2023-01-27T00:39:04.110Z,4.10
2023-01-27T00:41:35.246Z,3.90
2023-01-27T00:44:07.551Z,4.00
2023-01-27T00:46:38.365Z,4.50
2023-01-27T00:49:09.319Z,3.80
2023-01-27T00:51:40.365Z,3.80
2023-01-27T00:54:11.715Z,4.60
2023-01-27T00:56:42.791Z,3.60
2023-01-27T00:59:13.461Z,4.00
2023-01-27T01:01:44.288Z,4.30
2023-01-27T01:04:15.173Z,3.40
2023-01-27T01:06:46.010Z,3.80
2023-01-27T01:09:16.654Z,4.20
2023-01-27T01:11:47.325Z,4.10
2023-01-27T01:14:18.180Z,3.70
2023-01-27T01:16:48.859Z,4.10
2023-01-27T01:19:19.955Z,3.80
2023-01-27T01:21:50.890Z,4.20
2023-01-27T01:24:21.591Z,3.70
2023-01-27T01:26:52.321Z,3.80
2023-01-27T01:29:23.057Z,4.20
2023-01-27T01:31:54.979Z,3.60
2023-01-27T01:34:25.950Z,3.60
2023-01-27T01:36:56.698Z,3.60
2023-01-27T01:39:27.748Z,3.50
2023-01-27T01:41:58.608Z,3.70
2023-01-27T01:44:31.369Z,5.00
2023-01-27T01:47:02.149Z,3.80
2023-01-27T01:49:37.260Z,3.20
2023-01-27T01:52:12.203Z,4.00
2023-01-27T01:54:46.912Z,4.40
2023-01-27T01:57:23.199Z,3.80
2023-01-27T01:59:59.093Z,3.60
2023-01-27T02:02:30.753Z,3.50
2023-01-27T02:05:05.771Z,4.10
2023-01-27T02:07:41.628Z,3.50
2023-01-27T02:10:13.668Z,3.60
2023-01-27T02:12:44.454Z,3.50
2023-01-27T02:15:16.031Z,3.70
2023-01-27T02:17:47.070Z,3.70
2023-01-27T02:20:24.966Z,3.60
2023-01-27T02:23:04.572Z,3.60
2023-01-27T02:25:44.740Z,3.70
2023-01-27T02:28:15.394Z,3.50
2023-01-27T02:30:46.372Z,3.70
2023-01-27T02:33:17.914Z,3.50
2023-01-27T02:35:59.090Z,3.90
2023-01-27T02:38:34.220Z,4.00
2023-01-27T02:41:10.889Z,3.60
2023-01-27T02:43:41.518Z,3.40
2023-01-27T02:46:12.293Z,3.50
2023-01-27T02:48:43.257Z,3.50
2023-01-27T02:51:14.569Z,3.80
2023-01-27T02:53:45.850Z,3.60
2023-01-27T02:56:17.158Z,3.40
2023-01-27T02:58:48.347Z,3.50
2023-01-27T03:01:19.034Z,3.40
2023-01-27T03:03:51.430Z,3.90
2023-01-27T03:06:22.818Z,4.20
2023-01-27T03:08:53.479Z,3.40
2023-01-27T03:11:38.072Z,3.80
2023-01-27T03:14:09.243Z,3.10
2023-01-27T03:16:58.066Z,3.20
2023-01-27T03:19:29.223Z,3.50
2023-01-27T03:22:01.972Z,3.40
2023-01-27T03:24:32.751Z,3.40
2023-01-27T03:27:03.440Z,3.50
2023-01-27T03:29:51.200Z,2.90
2023-01-27T03:32:22.251Z,3.50
2023-01-27T03:34:52.995Z,3.90
2023-01-27T03:37:41.376Z,3.10
2023-01-27T03:40:32.431Z,3.50
2023-01-27T03:43:20.600Z,3.20
2023-01-27T03:46:09.929Z,2.90
2023-01-27T03:48:42.154Z,3.00
2023-01-27T03:51:13.856Z,3.50
2023-01-27T03:53:44.766Z,2.80
2023-01-27T03:56:17.640Z,3.40
2023-01-27T03:58:49.191Z,3.00
2023-01-27T04:01:22.314Z,3.20
2023-01-27T04:04:11.352Z,3.30
2023-01-27T04:06:58.307Z,2.60
2023-01-27T04:09:31.472Z,3.30
2023-01-27T04:12:05.471Z,3.40
2023-01-27T04:14:38.913Z,3.20
2023-01-27T04:17:14.045Z,3.30
2023-01-27T04:19:45.692Z,3.20
2023-01-27T04:22:17.361Z,3.00
2023-01-27T04:24:48.017Z,2.90
2023-01-27T04:27:20.290Z,2.90
2023-01-27T04:29:51.255Z,3.10
2023-01-27T04:32:21.894Z,2.90
2023-01-27T04:34:52.676Z,2.80
2023-01-27T04:37:23.779Z,2.60
2023-01-27T04:39:54.865Z,3.10
2023-01-27T04:42:25.806Z,3.50
2023-01-27T04:44:57.439Z,3.00
2023-01-27T04:47:28.225Z,2.80
2023-01-27T04:49:59.046Z,3.10
2023-01-27T04:52:29.793Z,3.00
2023-01-27T04:55:00.524Z,3.10
2023-01-27T04:57:31.154Z,2.90
2023-01-27T05:00:01.789Z,2.70
2023-01-27T05:02:32.732Z,3.20
2023-01-27T05:05:04.704Z,3.00
2023-01-27T05:07:35.480Z,3.20
2023-01-27T05:10:07.134Z,2.70
2023-01-27T05:12:38.171Z,3.30
2023-01-27T05:15:11.269Z,3.80
2023-01-27T05:17:43.096Z,3.50
2023-01-27T05:20:15.232Z,3.60
2023-01-27T05:22:46.005Z,3.20
2023-01-27T05:25:17.392Z,3.30
2023-01-27T05:27:48.559Z,3.20
2023-01-27T05:30:19.719Z,3.10
2023-01-27T05:32:51.038Z,3.50
2023-01-27T05:35:21.841Z,3.40
2023-01-27T05:37:53.190Z,3.60
2023-01-27T05:40:23.935Z,3.10
2023-01-27T05:42:55.590Z,3.00
2023-01-27T05:45:26.339Z,3.00
2023-01-27T05:47:57.572Z,2.90
2023-01-27T05:50:28.424Z,3.00
2023-01-27T05:52:59.663Z,2.70
2023-01-27T05:55:30.472Z,2.50
2023-01-27T05:58:01.109Z,2.90
2023-01-27T06:00:31.879Z,2.50
2023-01-27T06:03:02.753Z,2.60
2023-01-27T06:05:35.055Z,2.20
2023-01-27T06:08:06.002Z,2.80
2023-01-27T06:10:37.425Z,2.80
2023-01-27T06:13:08.430Z,2.40
2023-01-27T06:15:41.015Z,2.60
2023-01-27T06:18:12.367Z,2.70
2023-01-27T06:20:43.508Z,2.50
2023-01-27T06:23:16.517Z,2.60
2023-01-27T06:25:49.178Z,2.50
2023-01-27T06:28:28.671Z,2.40
2023-01-27T06:31:08.004Z,2.70
2023-01-27T06:33:39.150Z,2.20
2023-01-27T06:36:13.607Z,2.00
2023-01-27T06:38:44.765Z,2.30
2023-01-27T06:41:15.816Z,2.10
2023-01-27T06:43:46.731Z,2.40
2023-01-27T06:46:17.723Z,2.00
2023-01-27T06:48:48.482Z,2.20
2023-01-27T06:51:19.411Z,2.40
2023-01-27T06:53:50.201Z,2.00
2023-01-27T06:56:20.893Z,1.90
2023-01-27T06:58:51.617Z,2.00
2023-01-27T07:01:22.894Z,2.40
2023-01-27T07:03:53.747Z,2.20
2023-01-27T07:06:24.437Z,2.00
2023-01-27T07:08:55.707Z,2.40
2023-01-27T07:11:26.382Z,1.60
2023-01-27T07:13:57.141Z,2.00
2023-01-27T07:16:28.011Z,2.00
2023-01-27T07:18:58.768Z,2.20
2023-01-27T07:21:29.783Z,1.70
2023-01-27T07:24:00.632Z,1.60
2023-01-27T07:26:31.393Z,2.00
2023-01-27T07:29:02.191Z,2.30
2023-01-27T07:31:34.586Z,2.00
2023-01-27T07:34:05.503Z,2.10
2023-01-27T07:36:36.149Z,2.00
2023-01-27T07:39:07.096Z,2.20
2023-01-27T07:41:38.814Z,2.00
2023-01-27T07:44:09.572Z,1.80
2023-01-27T07:46:40.217Z,2.10
2023-01-27T07:49:12.591Z,2.20
2023-01-27T07:51:43.197Z,2.20
2023-01-27T07:54:14.098Z,2.00
2023-01-27T07:56:44.988Z,2.00
2023-01-27T07:59:16.158Z,2.20
2023-01-27T08:01:48.316Z,2.30
2023-01-27T08:04:19.605Z,1.80
2023-01-27T08:06:50.297Z,1.80
2023-01-27T08:09:21.252Z,2.20
2023-01-27T08:11:51.985Z,1.90
2023-01-27T08:14:22.723Z,1.80
2023-01-27T08:16:53.382Z,2.00
2023-01-27T08:19:24.226Z,1.80
2023-01-27T08:21:55.247Z,2.30
2023-01-27T08:24:25.973Z,2.10
2023-01-27T08:26:57.229Z,2.10
2023-01-27T08:29:29.639Z,1.80
2023-01-27T08:32:01.348Z,2.00
2023-01-27T08:34:32.156Z,2.10
2023-01-27T08:37:03.051Z,1.70
2023-01-27T08:39:34.398Z,2.00
2023-01-27T08:42:05.148Z,1.80
2023-01-27T08:44:36.077Z,2.30
2023-01-27T08:47:06.868Z,2.40
2023-01-27T08:49:37.643Z,2.00
2023-01-27T08:52:08.371Z,2.20
2023-01-27T08:54:39.054Z,1.90
2023-01-27T08:57:09.989Z,2.20
2023-01-27T08:59:41.023Z,1.60
2023-01-27T09:02:14.207Z,2.10
2023-01-27T09:04:45.372Z,1.80
2023-01-27T09:07:16.332Z,1.90
2023-01-27T09:09:49.104Z,1.90
2023-01-27T09:12:19.896Z,2.00
2023-01-27T09:14:53.007Z,2.00
2023-01-27T09:17:23.640Z,2.00
2023-01-27T09:19:54.388Z,2.40
2023-01-27T09:22:25.328Z,2.20
2023-01-27T09:24:56.067Z,2.00
2023-01-27T09:27:38.781Z,2.30
2023-01-27T09:30:14.055Z,2.40
2023-01-27T09:32:45.153Z,2.30
2023-01-27T09:35:17.044Z,2.60
2023-01-27T09:37:51.777Z,2.50
2023-01-27T09:40:33.268Z,2.60
2023-01-27T09:43:25.741Z,2.50
2023-01-27T09:46:13.021Z,2.80
2023-01-27T09:49:08.252Z,2.50
2023-01-27T09:51:53.247Z,3.00
2023-01-27T09:54:46.604Z,2.50
2023-01-27T09:57:29.003Z,2.40
2023-01-27T10:00:18.481Z,2.50
2023-01-27T10:03:17.517Z,2.50
2023-01-27T10:06:19.777Z,3.00
2023-01-27T10:09:15.721Z,2.90
2023-01-27T10:11:56.491Z,2.50
2023-01-27T10:14:37.737Z,3.30
2023-01-27T10:17:27.752Z,2.80
2023-01-27T10:20:12.317Z,3.20
2023-01-27T10:22:54.797Z,3.00
2023-01-27T10:25:38.375Z,2.70
2023-01-27T10:28:15.629Z,3.00
2023-01-27T10:30:52.735Z,2.80
2023-01-27T10:33:28.650Z,2.90
2023-01-27T10:36:06.772Z,3.00
2023-01-27T10:38:45.274Z,3.40
2023-01-27T10:41:32.254Z,2.80
2023-01-27T10:44:32.718Z,2.90
2023-01-27T10:47:11.324Z,2.70
2023-01-27T10:49:47.500Z,2.60
2023-01-27T10:52:22.263Z,2.80
2023-01-27T10:54:59.293Z,2.90
2023-01-27T10:57:37.143Z,2.50
2023-01-27T11:00:41.893Z,3.10
2023-01-27T11:03:13.253Z,3.20
2023-01-27T11:05:48.777Z,2.90
2023-01-27T11:08:24.023Z,3.00
2023-01-27T11:11:16.659Z,3.00
2023-01-27T11:13:47.827Z,3.20
2023-01-27T11:16:20.766Z,2.60
2023-01-27T11:18:58.357Z,3.30
2023-01-27T11:21:32.620Z,3.00
2023-01-27T11:24:15.586Z,3.30
2023-01-27T11:26:55.625Z,3.10
2023-01-27T11:29:35.036Z,3.20
2023-01-27T11:32:14.072Z,3.00
2023-01-27T11:34:56.292Z,3.10
2023-01-27T11:37:32.296Z,3.00
2023-01-27T11:40:03.746Z,3.00
2023-01-27T11:42:36.447Z,3.00
2023-01-27T11:45:08.627Z,2.90
2023-01-27T11:47:41.097Z,3.20
2023-01-27T11:50:17.609Z,3.30
2023-01-27T11:52:53.224Z,3.00
2023-01-27T11:55:27.890Z,3.20
2023-01-27T11:58:16.885Z,3.00
2023-01-27T12:00:52.719Z,2.80
2023-01-27T12:03:28.324Z,3.10
2023-01-27T12:06:02.289Z,2.80
2023-01-27T12:08:45.194Z,3.10
2023-01-27T12:11:34.798Z,3.10
2023-01-27T12:14:07.260Z,3.90
2023-01-27T12:16:47.784Z,2.90
2023-01-27T12:19:28.352Z,3.00
2023-01-27T12:22:03.005Z,2.90
2023-01-27T12:24:36.731Z,2.90
2023-01-27T12:29:42.816Z,3.50
2023-01-27T12:32:23.468Z,3.50
2023-01-27T12:34:57.193Z,2.80
2023-01-27T12:40:03.290Z,3.00
2023-01-27T12:42:40.072Z,3.20
2023-01-27T12:45:26.458Z,2.90
2023-01-27T12:48:21.875Z,3.00
2023-01-27T12:51:06.208Z,3.20
2023-01-27T12:53:37.429Z,3.00
2023-01-27T12:56:16.378Z,2.90
2023-01-27T12:58:52.399Z,3.40
2023-01-27T13:01:28.367Z,3.50
2023-01-27T13:04:01.723Z,3.00
2023-01-27T13:06:45.207Z,3.30
2023-01-27T13:09:28.217Z,3.10
2023-01-27T13:12:01.893Z,3.20
2023-01-27T13:14:36.795Z,2.80
2023-01-27T13:17:27.131Z,3.50
2023-01-27T13:20:01.688Z,2.90
2023-01-27T13:22:43.349Z,3.50
2023-01-27T13:25:19.966Z,3.80
2023-01-27T13:27:54.943Z,3.40
2023-01-27T13:30:32.077Z,3.70
2023-01-27T13:33:18.940Z,4.10
2023-01-27T13:36:00.139Z,4.00
2023-01-27T13:38:39.938Z,3.90
2023-01-27T13:43:57.296Z,3.10
2023-01-27T13:46:31.704Z,4.00
2023-01-27T13:49:15.650Z,3.90
2023-01-27T13:51:46.622Z,3.60
2023-01-27T13:54:18.152Z,4.10
2023-01-27T13:57:03.329Z,3.60
2023-01-27T13:59:44.205Z,3.80
2023-01-27T14:03:01.670Z,3.80
2023-01-27T14:05:42.684Z,3.50
2023-01-27T14:08:32.687Z,3.90
2023-01-27T14:11:14.633Z,3.40
2023-01-27T14:14:01.129Z,3.30
2023-01-27T14:16:41.923Z,3.30
2023-01-27T14:19:29.112Z,3.30
2023-01-27T14:22:08.428Z,3.90
2023-01-27T14:24:47.265Z,3.90
2023-01-27T14:27:23.523Z,3.50
2023-01-27T14:30:03.801Z,3.70
2023-01-27T14:32:40.775Z,3.60
2023-01-27T14:35:30.544Z,3.60
2023-01-27T14:38:13.966Z,4.50
2023-01-27T14:41:00.210Z,3.40
2023-01-27T14:43:41.747Z,3.40
2023-01-27T14:46:22.996Z,4.60
2023-01-27T14:49:07.492Z,3.70
2023-01-27T14:51:46.286Z,3.40
2023-01-27T14:54:38.132Z,3.40
2023-01-27T14:57:25.019Z,3.60
2023-01-27T15:00:06.916Z,3.90
2023-01-27T15:02:48.496Z,3.70
2023-01-27T15:05:28.698Z,3.60
2023-01-27T15:08:08.369Z,3.90
2023-01-27T15:10:46.263Z,3.20
2023-01-27T15:13:55.251Z,3.60
2023-01-27T15:16:41.130Z,3.80
2023-01-27T15:22:17.770Z,3.30
2023-01-27T15:24:58.821Z,3.50
2023-01-27T15:27:30.463Z,3.30
2023-01-27T15:30:08.609Z,3.90
2023-01-27T15:32:40.119Z,3.70
2023-01-27T15:35:36.475Z,3.70
2023-01-27T15:38:35.928Z,3.60
2023-01-27T15:41:11.909Z,4.30
2023-01-27T15:44:03.857Z,3.80
2023-01-27T15:49:14.430Z,4.30
2023-01-27T15:51:45.478Z,4.20
2023-01-27T15:54:20.609Z,4.10
2023-01-27T15:56:55.147Z,4.30
2023-01-27T15:59:30.567Z,4.20
2023-01-27T16:02:14.229Z,4.50
2023-01-27T16:04:46.101Z,4.70
2023-01-27T16:07:28.199Z,5.90
2023-01-27T16:10:00.739Z,5.10
2023-01-27T16:12:43.541Z,5.70
2023-01-27T16:15:32.343Z,5.70
2023-01-27T16:18:27.269Z,5.40
2023-01-27T16:21:06.927Z,6.20
2023-01-27T16:23:50.212Z,5.30
2023-01-27T16:26:30.520Z,6.00
2023-01-27T16:29:16.463Z,5.90
2023-01-27T16:34:26.151Z,5.30
2023-01-27T16:37:06.232Z,5.20
2023-01-27T16:39:44.445Z,5.60
2023-01-27T16:42:17.787Z,6.70
2023-01-27T16:44:52.191Z,5.60
2023-01-27T16:47:29.279Z,5.40
2023-01-27T16:50:00.684Z,6.10
2023-01-27T16:52:42.131Z,7.00
2023-01-27T16:55:23.158Z,5.90
2023-01-27T16:57:56.858Z,6.80
2023-01-27T17:03:01.864Z,5.50
2023-01-27T17:05:32.978Z,6.40
2023-01-27T17:08:20.308Z,5.50
2023-01-27T17:10:56.084Z,6.10
2023-01-27T17:13:32.565Z,6.20
2023-01-27T17:16:06.067Z,6.00
2023-01-27T17:18:52.245Z,5.90
2023-01-27T17:21:33.654Z,5.90
2023-01-27T17:24:08.485Z,6.30
2023-01-27T17:26:39.648Z,6.80
2023-01-27T17:29:14.277Z,5.80
2023-01-27T17:31:45.773Z,6.00
2023-01-27T17:34:20.394Z,5.90
2023-01-27T17:37:15.514Z,6.40
2023-01-27T17:39:47.612Z,6.00
2023-01-27T17:42:20.267Z,6.40
2023-01-27T17:44:51.755Z,6.70
2023-01-27T17:47:24.471Z,6.20
2023-01-27T17:49:55.584Z,6.60
2023-01-27T17:52:28.541Z,6.20
2023-01-27T17:55:01.461Z,6.20
2023-01-27T17:57:35.616Z,6.10
2023-01-27T18:00:10.728Z,6.00
2023-01-27T18:02:50.202Z,6.20
2023-01-27T18:05:27.488Z,5.70
2023-01-27T18:07:58.387Z,6.70
2023-01-27T18:10:38.333Z,6.50
2023-01-27T18:13:36.357Z,5.80
2023-01-27T18:18:45.820Z,5.70
2023-01-27T18:21:23.298Z,5.90
2023-01-27T18:23:56.134Z,6.10
2023-01-27T18:26:30.052Z,6.00
2023-01-27T18:29:04.160Z,5.90
2023-01-27T18:31:38.890Z,6.30
2023-01-27T18:34:25.600Z,5.90
2023-01-27T18:36:58.950Z,6.30
2023-01-27T18:39:37.692Z,5.70
2023-01-27T18:42:15.512Z,6.10
2023-01-27T18:44:46.953Z,6.10
2023-01-27T18:47:35.491Z,5.30
2023-01-27T18:50:16.997Z,5.90
2023-01-27T18:52:48.328Z,5.60
2023-01-27T18:55:21.833Z,5.90
2023-01-27T18:57:54.037Z,6.70
2023-01-27T19:00:26.401Z,5.80
2023-01-27T19:03:01.192Z,6.40
2023-01-27T19:05:34.714Z,5.80
2023-01-27T19:08:06.446Z,5.70
2023-01-27T19:10:38.615Z,5.80
2023-01-27T19:13:10.515Z,6.00
2023-01-27T19:15:48.374Z,6.50
2023-01-27T19:18:26.064Z,5.60
2023-01-27T19:20:57.172Z,5.90
2023-01-27T19:23:28.189Z,5.50
2023-01-27T19:26:01.275Z,5.90
2023-01-27T19:28:34.582Z,6.10
2023-01-27T19:31:06.801Z,5.70
2023-01-27T19:33:38.815Z,6.20
2023-01-27T19:36:22.856Z,5.50
2023-01-27T19:38:56.679Z,5.80
2023-01-27T19:41:27.740Z,7.00
2023-01-27T19:43:58.655Z,5.20
2023-01-27T19:46:30.292Z,5.30
2023-01-27T19:49:01.054Z,5.80
2023-01-27T19:51:32.307Z,5.60
2023-01-27T19:54:03.447Z,5.70
2023-01-27T19:56:34.371Z,5.40
2023-01-27T19:59:05.686Z,5.80
2023-01-27T20:01:36.574Z,5.70
2023-01-27T20:04:07.686Z,5.70
2023-01-27T20:06:38.960Z,5.20
2023-01-27T20:09:11.420Z,5.30
2023-01-27T20:11:43.786Z,5.70
2023-01-27T20:14:16.924Z,5.80
2023-01-27T20:16:48.756Z,5.70
2023-01-27T20:19:20.177Z,5.30
2023-01-27T20:21:51.188Z,5.50
2023-01-27T20:24:22.728Z,6.30
2023-01-27T20:26:53.918Z,5.60
2023-01-27T20:29:25.041Z,5.30
2023-01-27T20:31:56.022Z,5.50
2023-01-27T20:34:26.922Z,5.90
2023-01-27T20:36:58.164Z,5.90
2023-01-27T20:39:29.808Z,5.60
2023-01-27T20:42:00.742Z,5.30
2023-01-27T20:44:31.662Z,4.90
2023-01-27T20:47:02.379Z,5.30
2023-01-27T20:49:33.110Z,4.80
2023-01-27T20:52:03.937Z,5.50
2023-01-27T20:54:35.175Z,6.10
2023-01-27T20:57:06.121Z,5.30
2023-01-27T20:59:51.543Z,4.70
2023-01-27T21:02:22.564Z,5.00
2023-01-27T21:04:53.349Z,5.40
2023-01-27T21:07:25.416Z,5.50
2023-01-27T21:09:56.395Z,5.70
2023-01-27T21:12:29.509Z,5.10
2023-01-27T21:15:01.769Z,5.50
2023-01-27T21:17:32.730Z,4.60
2023-01-27T21:20:03.754Z,5.20
2023-01-27T21:22:35.257Z,5.30
2023-01-27T21:25:06.490Z,5.30
2023-01-27T21:27:37.591Z,5.40
2023-01-27T21:30:13.251Z,5.00
2023-01-27T21:32:44.180Z,5.30
2023-01-27T21:35:15.702Z,5.30
2023-01-27T21:37:46.730Z,5.20
2023-01-27T21:40:18.056Z,5.30
2023-01-27T21:43:06.729Z,5.30
2023-01-27T21:45:40.216Z,4.70
2023-01-27T21:48:11.138Z,5.30
2023-01-27T21:50:42.059Z,4.70
2023-01-27T21:53:13.684Z,4.30
2023-01-27T21:55:44.443Z,4.90
2023-01-27T21:58:15.154Z,4.30
2023-01-27T22:00:45.897Z,4.70
2023-01-27T22:03:16.749Z,5.20
2023-01-27T22:05:47.646Z,4.40
2023-01-27T22:08:18.545Z,5.10
2023-01-27T22:10:49.447Z,4.90
2023-01-27T22:13:20.173Z,5.30
2023-01-27T22:15:53.375Z,5.50
2023-01-27T22:18:24.375Z,5.20
2023-01-27T22:20:55.367Z,5.00
2023-01-27T22:23:26.233Z,4.80
2023-01-27T22:25:57.247Z,4.80
2023-01-27T22:28:31.602Z,5.00
2023-01-27T22:31:04.966Z,5.70
2023-01-27T22:33:36.270Z,5.00
2023-01-27T22:36:08.874Z,5.10
2023-01-27T22:38:42.352Z,6.20
2023-01-27T22:41:13.118Z,4.90
2023-01-27T22:43:43.943Z,4.80
2023-01-27T22:46:14.773Z,5.10
2023-01-27T22:48:48.183Z,4.90
2023-01-27T22:51:19.388Z,6.10
2023-01-27T22:53:50.672Z,4.90
2023-01-27T22:56:21.406Z,4.70
2023-01-27T22:58:52.501Z,4.80
2023-01-27T23:01:23.331Z,5.10
2023-01-27T23:03:54.132Z,5.10
2023-01-27T23:06:25.173Z,5.70
2023-01-27T23:08:58.243Z,5.60
2023-01-27T23:11:29.004Z,5.60
2023-01-27T23:13:59.873Z,5.80
2023-01-27T23:16:30.951Z,4.90
2023-01-27T23:19:02.981Z,5.10
2023-01-27T23:21:33.903Z,5.10
2023-01-27T23:24:07.465Z,5.40
2023-01-27T23:26:38.854Z,5.40
2023-01-27T23:29:19.474Z,5.10
2023-01-27T23:31:54.985Z,5.50
2023-01-27T23:34:26.318Z,5.00
2023-01-27T23:36:57.261Z,5.70
2023-01-27T23:39:27.914Z,4.30
2023-01-27T23:41:58.704Z,5.20
2023-01-27T23:44:29.575Z,4.80
2023-01-27T23:47:00.824Z,5.60
2023-01-27T23:49:32.178Z,5.10
2023-01-27T23:52:02.903Z,5.10
2023-01-27T23:54:34.365Z,5.40
2023-01-27T23:57:05.234Z,5.20
2023-01-27T23:59:36.471Z,4.90
